sensor_id;sensor_type;location;lat;lon;timestamp;P1;durP1;ratioP1;P2;durP2;ratioP2
33740;SDS011;20065;48.380;10.892;2023-06-24T00:01:50;6.73;;;4.80;;
33740;SDS011;20065;48.380;10.892;2023-06-24T00:04:39;8.23;;;5.47;;
33740;SDS011;20065;48.380;10.892;2023-06-24T00:07:25;7.50;;;5.00;;
33740;SDS011;20065;48.380;10.892;2023-06-24T00:10:14;8.47;;;4.53;;
33740;SDS011;20065;48.380;10.892;2023-06-24T00:13:04;6.33;;;4.60;;
33740;SDS011;20065;48.380;10.892;2023-06-24T00:15:50;7.03;;;4.87;;
33740;SDS011;20065;48.380;10.892;2023-06-24T00:18:36;9.83;;;4.77;;
33740;SDS011;20065;48.380;10.892;2023-06-24T00:21:26;7.73;;;4.47;;
33740;SDS011;20065;48.380;10.892;2023-06-24T00:24:20;7.10;;;4.57;;
33740;SDS011;20065;48.380;10.892;2023-06-24T00:27:10;7.40;;;4.50;;
33740;SDS011;20065;48.380;10.892;2023-06-24T00:29:59;6.30;;;4.77;;
33740;SDS011;20065;48.380;10.892;2023-06-24T00:32:45;6.80;;;4.03;;
33740;SDS011;20065;48.380;10.892;2023-06-24T00:35:31;6.60;;;4.80;;
33740;SDS011;20065;48.380;10.892;2023-06-24T00:38:18;9.33;;;5.20;;
33740;SDS011;20065;48.380;10.892;2023-06-24T00:41:06;7.40;;;4.57;;
33740;SDS011;20065;48.380;10.892;2023-06-24T00:43:53;7.70;;;4.37;;
33740;SDS011;20065;48.380;10.892;2023-06-24T00:46:39;7.67;;;4.90;;
33740;SDS011;20065;48.380;10.892;2023-06-24T00:49:29;6.23;;;4.07;;
33740;SDS011;20065;48.380;10.892;2023-06-24T00:52:16;7.60;;;4.87;;
33740;SDS011;20065;48.380;10.892;2023-06-24T00:55:02;6.30;;;4.67;;
33740;SDS011;20065;48.380;10.892;2023-06-24T00:57:50;5.50;;;3.80;;
33740;SDS011;20065;48.380;10.892;2023-06-24T01:00:39;7.77;;;4.83;;
33740;SDS011;20065;48.380;10.892;2023-06-24T01:03:26;7.90;;;5.00;;
33740;SDS011;20065;48.380;10.892;2023-06-24T01:06:14;5.73;;;4.30;;
33740;SDS011;20065;48.380;10.892;2023-06-24T01:09:00;5.97;;;4.53;;
33740;SDS011;20065;48.380;10.892;2023-06-24T01:11:48;7.20;;;4.30;;
33740;SDS011;20065;48.380;10.892;2023-06-24T01:14:37;16.33;;;5.50;;
33740;SDS011;20065;48.380;10.892;2023-06-24T01:17:24;8.90;;;5.70;;
33740;SDS011;20065;48.380;10.892;2023-06-24T01:20:42;7.47;;;4.67;;
33740;SDS011;20065;48.380;10.892;2023-06-24T01:30:00;7.07;;;5.13;;
33740;SDS011;20065;48.380;10.892;2023-06-24T01:33:09;6.47;;;4.70;;
33740;SDS011;20065;48.380;10.892;2023-06-24T01:36:01;6.53;;;5.00;;
33740;SDS011;20065;48.380;10.892;2023-06-24T01:38:51;9.40;;;5.57;;
33740;SDS011;20065;48.380;10.892;2023-06-24T01:41:47;10.10;;;5.10;;
33740;SDS011;20065;48.380;10.892;2023-06-24T01:44:39;6.30;;;4.63;;
33740;SDS011;20065;48.380;10.892;2023-06-24T01:47:29;6.50;;;4.67;;
33740;SDS011;20065;48.380;10.892;2023-06-24T01:50:16;6.47;;;4.60;;
33740;SDS011;20065;48.380;10.892;2023-06-24T01:53:07;6.63;;;4.60;;
33740;SDS011;20065;48.380;10.892;2023-06-24T01:55:54;6.43;;;4.30;;
33740;SDS011;20065;48.380;10.892;2023-06-24T01:58:44;6.80;;;4.37;;
33740;SDS011;20065;48.380;10.892;2023-06-24T02:01:32;8.37;;;4.00;;
33740;SDS011;20065;48.380;10.892;2023-06-24T02:04:21;8.77;;;4.70;;
33740;SDS011;20065;48.380;10.892;2023-06-24T02:07:09;6.93;;;4.67;;
33740;SDS011;20065;48.380;10.892;2023-06-24T02:09:57;7.80;;;4.87;;
33740;SDS011;20065;48.380;10.892;2023-06-24T02:12:46;6.73;;;4.70;;
33740;SDS011;20065;48.380;10.892;2023-06-24T02:15:35;7.37;;;4.90;;
33740;SDS011;20065;48.380;10.892;2023-06-24T02:18:25;6.97;;;4.30;;
33740;SDS011;20065;48.380;10.892;2023-06-24T02:21:13;5.93;;;4.33;;
33740;SDS011;20065;48.380;10.892;2023-06-24T02:24:05;8.00;;;4.90;;
33740;SDS011;20065;48.380;10.892;2023-06-24T02:26:52;8.97;;;4.50;;
33740;SDS011;20065;48.380;10.892;2023-06-24T02:29:39;8.47;;;4.00;;
33740;SDS011;20065;48.380;10.892;2023-06-24T02:32:26;6.30;;;4.17;;
33740;SDS011;20065;48.380;10.892;2023-06-24T02:35:12;7.13;;;4.70;;
33740;SDS011;20065;48.380;10.892;2023-06-24T02:38:05;6.47;;;4.87;;
33740;SDS011;20065;48.380;10.892;2023-06-24T02:40:51;7.57;;;4.63;;
33740;SDS011;20065;48.380;10.892;2023-06-24T02:43:37;6.80;;;4.77;;
33740;SDS011;20065;48.380;10.892;2023-06-24T02:46:24;8.17;;;5.27;;
33740;SDS011;20065;48.380;10.892;2023-06-24T02:49:15;7.27;;;5.20;;
33740;SDS011;20065;48.380;10.892;2023-06-24T02:52:03;6.83;;;4.93;;
33740;SDS011;20065;48.380;10.892;2023-06-24T02:54:50;8.80;;;4.90;;
33740;SDS011;20065;48.380;10.892;2023-06-24T03:01:00;6.17;;;4.50;;
33740;SDS011;20065;48.380;10.892;2023-06-24T03:03:54;6.50;;;4.43;;
33740;SDS011;20065;48.380;10.892;2023-06-24T03:06:41;7.90;;;5.17;;
33740;SDS011;20065;48.380;10.892;2023-06-24T03:09:32;6.83;;;4.67;;
33740;SDS011;20065;48.380;10.892;2023-06-24T03:12:20;5.03;;;3.70;;
33740;SDS011;20065;48.380;10.892;2023-06-24T03:15:07;7.63;;;4.60;;
33740;SDS011;20065;48.380;10.892;2023-06-24T03:17:55;8.77;;;4.23;;
33740;SDS011;20065;48.380;10.892;2023-06-24T03:20:41;8.43;;;4.27;;
33740;SDS011;20065;48.380;10.892;2023-06-24T03:23:32;6.63;;;4.17;;
33740;SDS011;20065;48.380;10.892;2023-06-24T03:26:19;6.97;;;4.20;;
33740;SDS011;20065;48.380;10.892;2023-06-24T03:29:05;6.93;;;4.60;;
33740;SDS011;20065;48.380;10.892;2023-06-24T03:31:53;6.37;;;4.67;;
33740;SDS011;20065;48.380;10.892;2023-06-24T03:34:41;7.37;;;4.57;;
33740;SDS011;20065;48.380;10.892;2023-06-24T03:37:29;6.80;;;4.57;;
33740;SDS011;20065;48.380;10.892;2023-06-24T03:40:16;6.70;;;5.13;;
33740;SDS011;20065;48.380;10.892;2023-06-24T03:43:03;8.03;;;5.50;;
33740;SDS011;20065;48.380;10.892;2023-06-24T03:45:49;6.70;;;5.10;;
33740;SDS011;20065;48.380;10.892;2023-06-24T03:48:36;7.87;;;4.97;;
33740;SDS011;20065;48.380;10.892;2023-06-24T03:51:22;7.17;;;5.37;;
33740;SDS011;20065;48.380;10.892;2023-06-24T03:54:08;7.17;;;5.30;;
33740;SDS011;20065;48.380;10.892;2023-06-24T03:56:55;7.83;;;4.97;;
33740;SDS011;20065;48.380;10.892;2023-06-24T03:59:41;9.30;;;5.93;;
33740;SDS011;20065;48.380;10.892;2023-06-24T04:02:27;7.47;;;5.17;;
33740;SDS011;20065;48.380;10.892;2023-06-24T04:05:15;6.33;;;4.33;;
33740;SDS011;20065;48.380;10.892;2023-06-24T04:08:01;7.47;;;4.67;;
33740;SDS011;20065;48.380;10.892;2023-06-24T04:10:51;6.17;;;4.83;;
33740;SDS011;20065;48.380;10.892;2023-06-24T04:13:38;6.43;;;4.60;;
33740;SDS011;20065;48.380;10.892;2023-06-24T04:16:24;6.77;;;4.47;;
33740;SDS011;20065;48.380;10.892;2023-06-24T04:19:10;6.90;;;4.13;;
33740;SDS011;20065;48.380;10.892;2023-06-24T04:21:57;5.50;;;4.10;;
33740;SDS011;20065;48.380;10.892;2023-06-24T04:24:43;8.50;;;4.53;;
33740;SDS011;20065;48.380;10.892;2023-06-24T04:27:29;8.60;;;4.33;;
33740;SDS011;20065;48.380;10.892;2023-06-24T04:30:15;8.47;;;4.60;;
33740;SDS011;20065;48.380;10.892;2023-06-24T04:33:02;6.50;;;4.77;;
33740;SDS011;20065;48.380;10.892;2023-06-24T04:35:48;5.80;;;4.03;;
33740;SDS011;20065;48.380;10.892;2023-06-24T04:38:34;7.40;;;4.70;;
33740;SDS011;20065;48.380;10.892;2023-06-24T04:41:22;6.33;;;4.70;;
33740;SDS011;20065;48.380;10.892;2023-06-24T04:44:08;7.33;;;4.40;;
33740;SDS011;20065;48.380;10.892;2023-06-24T04:46:54;6.73;;;4.50;;
33740;SDS011;20065;48.380;10.892;2023-06-24T04:49:40;5.73;;;4.40;;
33740;SDS011;20065;48.380;10.892;2023-06-24T04:52:26;7.23;;;4.87;;
33740;SDS011;20065;48.380;10.892;2023-06-24T04:55:13;8.80;;;4.87;;
33740;SDS011;20065;48.380;10.892;2023-06-24T04:58:00;7.40;;;4.80;;
33740;SDS011;20065;48.380;10.892;2023-06-24T05:00:46;5.87;;;4.37;;
33740;SDS011;20065;48.380;10.892;2023-06-24T05:03:32;8.60;;;5.20;;
33740;SDS011;20065;48.380;10.892;2023-06-24T05:06:18;6.13;;;4.50;;
33740;SDS011;20065;48.380;10.892;2023-06-24T05:09:04;9.10;;;5.67;;
33740;SDS011;20065;48.380;10.892;2023-06-24T05:11:51;6.70;;;4.90;;
33740;SDS011;20065;48.380;10.892;2023-06-24T05:14:37;6.67;;;5.00;;
33740;SDS011;20065;48.380;10.892;2023-06-24T05:17:23;7.33;;;5.00;;
33740;SDS011;20065;48.380;10.892;2023-06-24T05:20:09;10.03;;;5.50;;
33740;SDS011;20065;48.380;10.892;2023-06-24T05:22:56;8.40;;;4.53;;
33740;SDS011;20065;48.380;10.892;2023-06-24T05:25:42;6.97;;;4.67;;
33740;SDS011;20065;48.380;10.892;2023-06-24T05:28:28;6.63;;;4.57;;
33740;SDS011;20065;48.380;10.892;2023-06-24T05:31:14;6.50;;;4.33;;
33740;SDS011;20065;48.380;10.892;2023-06-24T05:34:00;5.33;;;4.43;;
33740;SDS011;20065;48.380;10.892;2023-06-24T05:36:46;6.50;;;4.40;;
33740;SDS011;20065;48.380;10.892;2023-06-24T05:39:32;6.50;;;4.57;;
33740;SDS011;20065;48.380;10.892;2023-06-24T05:42:19;8.13;;;5.47;;
33740;SDS011;20065;48.380;10.892;2023-06-24T05:45:05;7.83;;;4.43;;
33740;SDS011;20065;48.380;10.892;2023-06-24T05:47:52;6.27;;;4.50;;
33740;SDS011;20065;48.380;10.892;2023-06-24T05:50:38;7.23;;;4.57;;
33740;SDS011;20065;48.380;10.892;2023-06-24T05:53:24;5.63;;;4.20;;
33740;SDS011;20065;48.380;10.892;2023-06-24T05:56:10;7.07;;;4.50;;
33740;SDS011;20065;48.380;10.892;2023-06-24T05:58:56;7.13;;;4.00;;
33740;SDS011;20065;48.380;10.892;2023-06-24T06:01:42;6.00;;;4.50;;
33740;SDS011;20065;48.380;10.892;2023-06-24T06:04:29;8.33;;;5.33;;
33740;SDS011;20065;48.380;10.892;2023-06-24T06:07:15;7.00;;;4.20;;
33740;SDS011;20065;48.380;10.892;2023-06-24T06:10:20;8.37;;;5.23;;
33740;SDS011;20065;48.380;10.892;2023-06-24T06:13:06;6.47;;;4.50;;
33740;SDS011;20065;48.380;10.892;2023-06-24T06:15:53;8.33;;;5.20;;
33740;SDS011;20065;48.380;10.892;2023-06-24T06:18:39;9.93;;;5.23;;
33740;SDS011;20065;48.380;10.892;2023-06-24T06:21:25;6.57;;;4.53;;
33740;SDS011;20065;48.380;10.892;2023-06-24T06:24:11;7.33;;;4.53;;
33740;SDS011;20065;48.380;10.892;2023-06-24T06:26:57;7.30;;;4.27;;
33740;SDS011;20065;48.380;10.892;2023-06-24T06:29:44;6.73;;;4.60;;
33740;SDS011;20065;48.380;10.892;2023-06-24T06:32:30;6.13;;;5.07;;
33740;SDS011;20065;48.380;10.892;2023-06-24T06:35:16;7.00;;;4.30;;
33740;SDS011;20065;48.380;10.892;2023-06-24T06:38:02;7.20;;;5.10;;
33740;SDS011;20065;48.380;10.892;2023-06-24T06:40:52;7.20;;;4.47;;
33740;SDS011;20065;48.380;10.892;2023-06-24T06:43:38;6.20;;;4.77;;
33740;SDS011;20065;48.380;10.892;2023-06-24T06:46:24;7.30;;;4.60;;
33740;SDS011;20065;48.380;10.892;2023-06-24T06:49:10;5.83;;;4.03;;
33740;SDS011;20065;48.380;10.892;2023-06-24T06:51:56;7.27;;;5.00;;
33740;SDS011;20065;48.380;10.892;2023-06-24T06:54:42;7.40;;;4.73;;
33740;SDS011;20065;48.380;10.892;2023-06-24T06:57:29;6.80;;;4.47;;
33740;SDS011;20065;48.380;10.892;2023-06-24T07:00:15;6.10;;;4.50;;
33740;SDS011;20065;48.380;10.892;2023-06-24T07:03:02;5.77;;;4.30;;
33740;SDS011;20065;48.380;10.892;2023-06-24T07:05:48;5.50;;;3.50;;
33740;SDS011;20065;48.380;10.892;2023-06-24T07:08:35;9.53;;;4.57;;
33740;SDS011;20065;48.380;10.892;2023-06-24T07:11:21;6.73;;;4.53;;
33740;SDS011;20065;48.380;10.892;2023-06-24T07:14:07;5.73;;;3.73;;
33740;SDS011;20065;48.380;10.892;2023-06-24T07:16:54;5.70;;;3.40;;
33740;SDS011;20065;48.380;10.892;2023-06-24T07:19:40;4.70;;;3.43;;
33740;SDS011;20065;48.380;10.892;2023-06-24T07:22:26;5.20;;;3.37;;
33740;SDS011;20065;48.380;10.892;2023-06-24T07:25:12;5.67;;;3.70;;
33740;SDS011;20065;48.380;10.892;2023-06-24T07:27:58;6.17;;;4.47;;
33740;SDS011;20065;48.380;10.892;2023-06-24T07:30:45;6.43;;;3.83;;
33740;SDS011;20065;48.380;10.892;2023-06-24T07:33:31;5.50;;;3.60;;
33740;SDS011;20065;48.380;10.892;2023-06-24T07:36:17;6.33;;;5.00;;
33740;SDS011;20065;48.380;10.892;2023-06-24T07:39:04;5.93;;;4.00;;
33740;SDS011;20065;48.380;10.892;2023-06-24T07:41:51;9.10;;;4.90;;
33740;SDS011;20065;48.380;10.892;2023-06-24T07:44:37;6.40;;;4.37;;
33740;SDS011;20065;48.380;10.892;2023-06-24T07:47:25;7.43;;;4.73;;
33740;SDS011;20065;48.380;10.892;2023-06-24T07:50:11;8.00;;;4.70;;
33740;SDS011;20065;48.380;10.892;2023-06-24T07:52:57;6.43;;;5.07;;
33740;SDS011;20065;48.380;10.892;2023-06-24T07:55:43;6.50;;;4.77;;
33740;SDS011;20065;48.380;10.892;2023-06-24T07:58:29;6.03;;;4.47;;
33740;SDS011;20065;48.380;10.892;2023-06-24T08:01:16;6.00;;;4.23;;
33740;SDS011;20065;48.380;10.892;2023-06-24T08:04:02;7.43;;;5.03;;
33740;SDS011;20065;48.380;10.892;2023-06-24T08:06:48;6.77;;;4.67;;
33740;SDS011;20065;48.380;10.892;2023-06-24T08:09:34;8.47;;;5.47;;
33740;SDS011;20065;48.380;10.892;2023-06-24T08:12:21;9.00;;;5.47;;
33740;SDS011;20065;48.380;10.892;2023-06-24T08:15:07;6.60;;;5.10;;
33740;SDS011;20065;48.380;10.892;2023-06-24T08:18:05;6.77;;;4.93;;
33740;SDS011;20065;48.380;10.892;2023-06-24T08:20:51;6.50;;;5.07;;
33740;SDS011;20065;48.380;10.892;2023-06-24T08:23:37;7.70;;;4.70;;
33740;SDS011;20065;48.380;10.892;2023-06-24T08:26:24;7.03;;;5.07;;
33740;SDS011;20065;48.380;10.892;2023-06-24T08:29:10;6.93;;;5.80;;
33740;SDS011;20065;48.380;10.892;2023-06-24T08:31:56;7.03;;;5.87;;
33740;SDS011;20065;48.380;10.892;2023-06-24T08:34:42;6.20;;;5.00;;
33740;SDS011;20065;48.380;10.892;2023-06-24T08:37:29;9.50;;;5.67;;
33740;SDS011;20065;48.380;10.892;2023-06-24T08:40:20;9.70;;;5.80;;
33740;SDS011;20065;48.380;10.892;2023-06-24T08:43:07;7.23;;;5.63;;
33740;SDS011;20065;48.380;10.892;2023-06-24T08:45:53;8.30;;;5.60;;
33740;SDS011;20065;48.380;10.892;2023-06-24T08:48:39;9.20;;;5.90;;
33740;SDS011;20065;48.380;10.892;2023-06-24T08:51:29;8.43;;;6.50;;
33740;SDS011;20065;48.380;10.892;2023-06-24T08:54:22;7.60;;;5.27;;
33740;SDS011;20065;48.380;10.892;2023-06-24T08:57:09;11.80;;;5.73;;
33740;SDS011;20065;48.380;10.892;2023-06-24T09:00:00;8.70;;;6.33;;
33740;SDS011;20065;48.380;10.892;2023-06-24T09:02:46;7.93;;;5.90;;
33740;SDS011;20065;48.380;10.892;2023-06-24T09:05:32;12.17;;;5.83;;
33740;SDS011;20065;48.380;10.892;2023-06-24T09:08:19;9.57;;;5.90;;
33740;SDS011;20065;48.380;10.892;2023-06-24T09:11:08;8.50;;;6.57;;
33740;SDS011;20065;48.380;10.892;2023-06-24T09:13:55;7.40;;;6.10;;
33740;SDS011;20065;48.380;10.892;2023-06-24T09:16:42;8.60;;;6.50;;
33740;SDS011;20065;48.380;10.892;2023-06-24T09:19:43;9.57;;;6.40;;
33740;SDS011;20065;48.380;10.892;2023-06-24T09:25:56;8.50;;;6.73;;
33740;SDS011;20065;48.380;10.892;2023-06-24T09:28:48;9.13;;;5.70;;
33740;SDS011;20065;48.380;10.892;2023-06-24T09:31:35;7.93;;;5.40;;
33740;SDS011;20065;48.380;10.892;2023-06-24T09:34:21;7.20;;;5.60;;
33740;SDS011;20065;48.380;10.892;2023-06-24T09:37:07;7.10;;;6.27;;
33740;SDS011;20065;48.380;10.892;2023-06-24T09:39:53;7.97;;;6.07;;
33740;SDS011;20065;48.380;10.892;2023-06-24T09:42:47;10.67;;;6.77;;
33740;SDS011;20065;48.380;10.892;2023-06-24T09:45:52;7.87;;;6.20;;
33740;SDS011;20065;48.380;10.892;2023-06-24T09:48:38;8.67;;;6.93;;
33740;SDS011;20065;48.380;10.892;2023-06-24T09:51:24;8.70;;;6.43;;
33740;SDS011;20065;48.380;10.892;2023-06-24T09:54:12;7.50;;;6.50;;
33740;SDS011;20065;48.380;10.892;2023-06-24T09:57:23;9.00;;;6.27;;
33740;SDS011;20065;48.380;10.892;2023-06-24T10:00:13;9.33;;;5.27;;
33740;SDS011;20065;48.380;10.892;2023-06-24T10:03:00;10.77;;;5.93;;
33740;SDS011;20065;48.380;10.892;2023-06-24T10:05:48;7.17;;;5.33;;
33740;SDS011;20065;48.380;10.892;2023-06-24T10:08:35;8.43;;;5.40;;
33740;SDS011;20065;48.380;10.892;2023-06-24T10:11:22;9.60;;;5.00;;
33740;SDS011;20065;48.380;10.892;2023-06-24T10:14:10;6.40;;;4.83;;
33740;SDS011;20065;48.380;10.892;2023-06-24T10:17:02;7.50;;;5.17;;
33740;SDS011;20065;48.380;10.892;2023-06-24T10:19:52;7.57;;;5.30;;
33740;SDS011;20065;48.380;10.892;2023-06-24T10:22:45;5.63;;;4.50;;
33740;SDS011;20065;48.380;10.892;2023-06-24T10:25:35;6.40;;;5.10;;
33740;SDS011;20065;48.380;10.892;2023-06-24T10:28:22;6.60;;;4.47;;
33740;SDS011;20065;48.380;10.892;2023-06-24T10:31:08;6.17;;;4.30;;
33740;SDS011;20065;48.380;10.892;2023-06-24T10:33:58;7.93;;;4.10;;
33740;SDS011;20065;48.380;10.892;2023-06-24T10:39:59;6.80;;;4.53;;
33740;SDS011;20065;48.380;10.892;2023-06-24T10:42:46;5.40;;;4.00;;
33740;SDS011;20065;48.380;10.892;2023-06-24T10:45:34;5.73;;;4.70;;
33740;SDS011;20065;48.380;10.892;2023-06-24T10:48:21;6.20;;;4.30;;
33740;SDS011;20065;48.380;10.892;2023-06-24T10:51:07;6.20;;;4.53;;
33740;SDS011;20065;48.380;10.892;2023-06-24T10:53:54;5.80;;;4.50;;
33740;SDS011;20065;48.380;10.892;2023-06-24T10:56:40;7.50;;;4.57;;
33740;SDS011;20065;48.380;10.892;2023-06-24T10:59:26;5.20;;;4.00;;
33740;SDS011;20065;48.380;10.892;2023-06-24T11:02:13;7.33;;;4.33;;
33740;SDS011;20065;48.380;10.892;2023-06-24T11:05:02;7.63;;;4.53;;
33740;SDS011;20065;48.380;10.892;2023-06-24T11:07:50;6.30;;;5.00;;
33740;SDS011;20065;48.380;10.892;2023-06-24T11:10:43;9.57;;;4.53;;
33740;SDS011;20065;48.380;10.892;2023-06-24T11:13:33;7.37;;;4.80;;
33740;SDS011;20065;48.380;10.892;2023-06-24T11:16:20;5.50;;;4.00;;
33740;SDS011;20065;48.380;10.892;2023-06-24T11:19:07;5.93;;;4.50;;
33740;SDS011;20065;48.380;10.892;2023-06-24T11:22:02;5.13;;;4.10;;
33740;SDS011;20065;48.380;10.892;2023-06-24T11:24:49;7.60;;;4.70;;
33740;SDS011;20065;48.380;10.892;2023-06-24T11:27:35;5.87;;;4.00;;
33740;SDS011;20065;48.380;10.892;2023-06-24T11:30:21;7.90;;;4.80;;
33740;SDS011;20065;48.380;10.892;2023-06-24T11:33:07;5.93;;;4.40;;
33740;SDS011;20065;48.380;10.892;2023-06-24T11:35:54;6.33;;;4.20;;
33740;SDS011;20065;48.380;10.892;2023-06-24T11:38:45;6.50;;;4.10;;
33740;SDS011;20065;48.380;10.892;2023-06-24T11:41:31;6.30;;;4.00;;
33740;SDS011;20065;48.380;10.892;2023-06-24T11:44:21;5.73;;;4.40;;
33740;SDS011;20065;48.380;10.892;2023-06-24T11:47:09;6.60;;;4.53;;
33740;SDS011;20065;48.380;10.892;2023-06-24T11:49:56;7.53;;;4.60;;
33740;SDS011;20065;48.380;10.892;2023-06-24T11:52:51;5.77;;;4.50;;
33740;SDS011;20065;48.380;10.892;2023-06-24T11:55:40;6.73;;;4.97;;
33740;SDS011;20065;48.380;10.892;2023-06-24T11:58:27;8.77;;;4.83;;
33740;SDS011;20065;48.380;10.892;2023-06-24T12:01:13;7.10;;;4.30;;
33740;SDS011;20065;48.380;10.892;2023-06-24T12:04:00;6.60;;;4.60;;
33740;SDS011;20065;48.380;10.892;2023-06-24T12:06:47;13.70;;;4.53;;
33740;SDS011;20065;48.380;10.892;2023-06-24T12:09:33;6.53;;;4.33;;
33740;SDS011;20065;48.380;10.892;2023-06-24T12:12:19;6.90;;;4.67;;
33740;SDS011;20065;48.380;10.892;2023-06-24T12:15:06;6.20;;;5.03;;
33740;SDS011;20065;48.380;10.892;2023-06-24T12:17:52;6.70;;;4.63;;
33740;SDS011;20065;48.380;10.892;2023-06-24T12:20:44;6.27;;;4.70;;
33740;SDS011;20065;48.380;10.892;2023-06-24T12:23:31;5.30;;;4.10;;
33740;SDS011;20065;48.380;10.892;2023-06-24T12:26:17;5.00;;;4.10;;
33740;SDS011;20065;48.380;10.892;2023-06-24T12:29:03;5.93;;;3.50;;
33740;SDS011;20065;48.380;10.892;2023-06-24T12:31:50;4.40;;;3.27;;
33740;SDS011;20065;48.380;10.892;2023-06-24T12:34:36;4.90;;;3.47;;
33740;SDS011;20065;48.380;10.892;2023-06-24T12:37:22;6.30;;;4.07;;
33740;SDS011;20065;48.380;10.892;2023-06-24T12:40:09;5.77;;;4.00;;
33740;SDS011;20065;48.380;10.892;2023-06-24T12:42:55;7.57;;;4.33;;
33740;SDS011;20065;48.380;10.892;2023-06-24T12:45:43;4.67;;;3.27;;
33740;SDS011;20065;48.380;10.892;2023-06-24T12:48:29;5.07;;;3.60;;
33740;SDS011;20065;48.380;10.892;2023-06-24T12:51:15;5.57;;;3.57;;
33740;SDS011;20065;48.380;10.892;2023-06-24T12:54:01;5.80;;;3.30;;
33740;SDS011;20065;48.380;10.892;2023-06-24T12:56:48;6.17;;;3.40;;
33740;SDS011;20065;48.380;10.892;2023-06-24T12:59:34;6.47;;;4.00;;
33740;SDS011;20065;48.380;10.892;2023-06-24T13:02:20;5.77;;;3.43;;
33740;SDS011;20065;48.380;10.892;2023-06-24T13:05:09;6.30;;;3.63;;
33740;SDS011;20065;48.380;10.892;2023-06-24T13:07:55;5.53;;;3.60;;
33740;SDS011;20065;48.380;10.892;2023-06-24T13:10:42;5.00;;;3.80;;
33740;SDS011;20065;48.380;10.892;2023-06-24T13:13:32;5.87;;;3.53;;
33740;SDS011;20065;48.380;10.892;2023-06-24T13:16:19;4.53;;;3.73;;
33740;SDS011;20065;48.380;10.892;2023-06-24T13:19:05;5.00;;;3.67;;
33740;SDS011;20065;48.380;10.892;2023-06-24T13:21:51;5.10;;;3.70;;
33740;SDS011;20065;48.380;10.892;2023-06-24T13:24:38;6.57;;;4.30;;
33740;SDS011;20065;48.380;10.892;2023-06-24T13:27:24;5.60;;;3.20;;
33740;SDS011;20065;48.380;10.892;2023-06-24T13:30:10;6.57;;;4.20;;
33740;SDS011;20065;48.380;10.892;2023-06-24T13:32:57;6.67;;;3.97;;
33740;SDS011;20065;48.380;10.892;2023-06-24T13:35:43;5.57;;;3.30;;
33740;SDS011;20065;48.380;10.892;2023-06-24T13:38:30;4.77;;;3.47;;
33740;SDS011;20065;48.380;10.892;2023-06-24T13:41:16;5.43;;;3.70;;
33740;SDS011;20065;48.380;10.892;2023-06-24T13:44:03;6.73;;;4.47;;
33740;SDS011;20065;48.380;10.892;2023-06-24T13:46:51;7.60;;;3.60;;
33740;SDS011;20065;48.380;10.892;2023-06-24T13:49:38;7.90;;;3.80;;
33740;SDS011;20065;48.380;10.892;2023-06-24T13:52:25;5.33;;;3.87;;
33740;SDS011;20065;48.380;10.892;2023-06-24T13:55:12;6.27;;;4.30;;
33740;SDS011;20065;48.380;10.892;2023-06-24T13:57:58;5.83;;;4.17;;
33740;SDS011;20065;48.380;10.892;2023-06-24T14:00:45;6.00;;;3.77;;
33740;SDS011;20065;48.380;10.892;2023-06-24T14:03:31;5.80;;;4.00;;
33740;SDS011;20065;48.380;10.892;2023-06-24T14:06:18;7.20;;;4.00;;
33740;SDS011;20065;48.380;10.892;2023-06-24T14:09:05;8.03;;;3.90;;
33740;SDS011;20065;48.380;10.892;2023-06-24T14:11:51;4.90;;;3.50;;
33740;SDS011;20065;48.380;10.892;2023-06-24T14:14:38;4.80;;;3.93;;
33740;SDS011;20065;48.380;10.892;2023-06-24T14:17:24;5.33;;;3.90;;
33740;SDS011;20065;48.380;10.892;2023-06-24T14:20:11;5.73;;;4.10;;
33740;SDS011;20065;48.380;10.892;2023-06-24T14:22:57;6.53;;;4.20;;
33740;SDS011;20065;48.380;10.892;2023-06-24T14:25:43;5.50;;;3.33;;
33740;SDS011;20065;48.380;10.892;2023-06-24T14:28:29;5.90;;;4.43;;
33740;SDS011;20065;48.380;10.892;2023-06-24T14:31:16;4.97;;;3.73;;
33740;SDS011;20065;48.380;10.892;2023-06-24T14:34:02;5.27;;;3.83;;
33740;SDS011;20065;48.380;10.892;2023-06-24T14:36:48;6.83;;;4.57;;
33740;SDS011;20065;48.380;10.892;2023-06-24T14:39:34;5.80;;;4.00;;
33740;SDS011;20065;48.380;10.892;2023-06-24T14:42:21;5.60;;;3.97;;
33740;SDS011;20065;48.380;10.892;2023-06-24T14:45:07;6.30;;;4.43;;
33740;SDS011;20065;48.380;10.892;2023-06-24T14:47:54;8.93;;;3.90;;
33740;SDS011;20065;48.380;10.892;2023-06-24T14:50:40;4.97;;;4.00;;
33740;SDS011;20065;48.380;10.892;2023-06-24T14:53:27;5.90;;;4.23;;
33740;SDS011;20065;48.380;10.892;2023-06-24T14:56:16;5.97;;;3.67;;
33740;SDS011;20065;48.380;10.892;2023-06-24T14:59:02;6.60;;;4.00;;
33740;SDS011;20065;48.380;10.892;2023-06-24T15:01:48;4.47;;;3.40;;
33740;SDS011;20065;48.380;10.892;2023-06-24T15:04:35;5.07;;;3.97;;
33740;SDS011;20065;48.380;10.892;2023-06-24T15:07:22;5.27;;;3.80;;
33740;SDS011;20065;48.380;10.892;2023-06-24T15:10:08;5.73;;;4.20;;
33740;SDS011;20065;48.380;10.892;2023-06-24T15:12:54;8.63;;;4.33;;
33740;SDS011;20065;48.380;10.892;2023-06-24T15:15:40;4.90;;;3.73;;
33740;SDS011;20065;48.380;10.892;2023-06-24T15:18:27;5.70;;;4.10;;
33740;SDS011;20065;48.380;10.892;2023-06-24T15:21:14;5.43;;;4.30;;
33740;SDS011;20065;48.380;10.892;2023-06-24T15:24:00;7.07;;;4.30;;
33740;SDS011;20065;48.380;10.892;2023-06-24T15:26:46;5.37;;;3.97;;
33740;SDS011;20065;48.380;10.892;2023-06-24T15:29:33;6.17;;;4.20;;
33740;SDS011;20065;48.380;10.892;2023-06-24T15:32:19;5.50;;;3.50;;
33740;SDS011;20065;48.380;10.892;2023-06-24T15:35:05;5.87;;;3.93;;
33740;SDS011;20065;48.380;10.892;2023-06-24T15:37:52;5.27;;;4.20;;
33740;SDS011;20065;48.380;10.892;2023-06-24T15:40:41;6.00;;;4.20;;
33740;SDS011;20065;48.380;10.892;2023-06-24T15:43:33;5.00;;;4.03;;
33740;SDS011;20065;48.380;10.892;2023-06-24T15:46:20;5.80;;;4.00;;
33740;SDS011;20065;48.380;10.892;2023-06-24T15:49:27;6.40;;;3.80;;
33740;SDS011;20065;48.380;10.892;2023-06-24T15:56:00;7.80;;;4.13;;
33740;SDS011;20065;48.380;10.892;2023-06-24T15:58:46;9.90;;;4.83;;
33740;SDS011;20065;48.380;10.892;2023-06-24T16:01:33;7.20;;;4.40;;
33740;SDS011;20065;48.380;10.892;2023-06-24T16:04:19;5.83;;;4.30;;
33740;SDS011;20065;48.380;10.892;2023-06-24T16:07:06;5.30;;;4.30;;
33740;SDS011;20065;48.380;10.892;2023-06-24T16:09:52;9.90;;;5.20;;
33740;SDS011;20065;48.380;10.892;2023-06-24T16:12:48;7.53;;;4.60;;
33740;SDS011;20065;48.380;10.892;2023-06-24T16:15:34;5.80;;;4.00;;
33740;SDS011;20065;48.380;10.892;2023-06-24T16:18:21;9.97;;;5.23;;
33740;SDS011;20065;48.380;10.892;2023-06-24T16:21:08;5.53;;;4.40;;
33740;SDS011;20065;48.380;10.892;2023-06-24T16:23:54;6.23;;;4.10;;
33740;SDS011;20065;48.380;10.892;2023-06-24T16:26:41;6.10;;;4.43;;
33740;SDS011;20065;48.380;10.892;2023-06-24T16:29:27;4.80;;;3.67;;
33740;SDS011;20065;48.380;10.892;2023-06-24T16:32:13;5.90;;;3.83;;
33740;SDS011;20065;48.380;10.892;2023-06-24T16:35:00;5.83;;;3.90;;
33740;SDS011;20065;48.380;10.892;2023-06-24T16:37:47;6.80;;;4.70;;
33740;SDS011;20065;48.380;10.892;2023-06-24T16:40:33;7.57;;;4.23;;
33740;SDS011;20065;48.380;10.892;2023-06-24T16:43:19;8.37;;;4.67;;
33740;SDS011;20065;48.380;10.892;2023-06-24T16:46:05;9.77;;;4.00;;
33740;SDS011;20065;48.380;10.892;2023-06-24T16:48:52;5.80;;;4.60;;
33740;SDS011;20065;48.380;10.892;2023-06-24T16:51:38;6.47;;;4.83;;
33740;SDS011;20065;48.380;10.892;2023-06-24T16:54:27;8.50;;;4.30;;